sensor_id;sensor_type;location;lat;lon;timestamp;P1;durP1;ratioP1;P2;durP2;ratioP2
59302;SDS011;45074;52.764;6.896;2022-12-13T00:00:23;69.68;;;30.55;;
59302;SDS011;45074;52.764;6.896;2022-12-13T00:02:49;62.63;;;28.13;;
59302;SDS011;45074;52.764;6.896;2022-12-13T00:05:15;67.65;;;29.30;;
59302;SDS011;45074;52.764;6.896;2022-12-13T00:07:41;73.45;;;30.20;;
59302;SDS011;45074;52.764;6.896;2022-12-13T00:10:07;72.80;;;30.67;;
59302;SDS011;45074;52.764;6.896;2022-12-13T00:12:33;71.65;;;30.70;;
59302;SDS011;45074;52.764;6.896;2022-12-13T00:14:59;73.40;;;32.08;;
59302;SDS011;45074;52.764;6.896;2022-12-13T00:17:25;65.35;;;30.70;;
59302;SDS011;45074;52.764;6.896;2022-12-13T00:19:51;62.25;;;29.98;;
59302;SDS011;45074;52.764;6.896;2022-12-13T00:22:17;67.30;;;30.90;;
59302;SDS011;45074;52.764;6.896;2022-12-13T00:24:43;71.10;;;30.40;;
59302;SDS011;45074;52.764;6.896;2022-12-13T00:27:09;64.80;;;30.45;;
59302;SDS011;45074;52.764;6.896;2022-12-13T00:29:35;71.75;;;31.13;;
59302;SDS011;45074;52.764;6.896;2022-12-13T00:32:01;67.55;;;31.08;;
59302;SDS011;45074;52.764;6.896;2022-12-13T00:34:28;65.15;;;31.35;;
59302;SDS011;45074;52.764;6.896;2022-12-13T00:36:54;67.93;;;31.70;;
59302;SDS011;45074;52.764;6.896;2022-12-13T00:39:23;71.22;;;30.40;;
59302;SDS011;45074;52.764;6.896;2022-12-13T00:41:49;71.97;;;30.98;;
59302;SDS011;45074;52.764;6.896;2022-12-13T00:44:15;65.40;;;30.27;;
59302;SDS011;45074;52.764;6.896;2022-12-13T00:46:43;70.10;;;32.20;;
59302;SDS011;45074;52.764;6.896;2022-12-13T00:49:10;65.10;;;30.27;;
59302;SDS011;45074;52.764;6.896;2022-12-13T00:51:37;64.80;;;30.13;;
59302;SDS011;45074;52.764;6.896;2022-12-13T00:54:03;67.72;;;29.52;;
59302;SDS011;45074;52.764;6.896;2022-12-13T00:56:30;67.38;;;29.92;;
59302;SDS011;45074;52.764;6.896;2022-12-13T00:58:57;58.45;;;29.10;;
59302;SDS011;45074;52.764;6.896;2022-12-13T01:01:24;56.20;;;26.60;;
59302;SDS011;45074;52.764;6.896;2022-12-13T01:03:52;57.17;;;28.15;;
59302;SDS011;45074;52.764;6.896;2022-12-13T01:06:24;58.38;;;27.92;;
59302;SDS011;45074;52.764;6.896;2022-12-13T01:09:02;56.08;;;27.38;;
59302;SDS011;45074;52.764;6.896;2022-12-13T01:11:29;53.45;;;26.42;;
59302;SDS011;45074;52.764;6.896;2022-12-13T01:13:55;51.53;;;27.05;;
59302;SDS011;45074;52.764;6.896;2022-12-13T01:16:21;51.28;;;26.48;;
59302;SDS011;45074;52.764;6.896;2022-12-13T01:18:47;50.10;;;27.27;;
59302;SDS011;45074;52.764;6.896;2022-12-13T01:21:14;52.42;;;27.65;;
59302;SDS011;45074;52.764;6.896;2022-12-13T01:23:42;56.10;;;27.55;;
59302;SDS011;45074;52.764;6.896;2022-12-13T01:26:10;52.40;;;26.33;;
59302;SDS011;45074;52.764;6.896;2022-12-13T01:28:37;59.55;;;27.92;;
59302;SDS011;45074;52.764;6.896;2022-12-13T01:31:04;59.47;;;28.55;;
59302;SDS011;45074;52.764;6.896;2022-12-13T01:33:32;58.92;;;29.85;;
59302;SDS011;45074;52.764;6.896;2022-12-13T01:35:59;63.30;;;29.10;;
59302;SDS011;45074;52.764;6.896;2022-12-13T01:38:26;63.83;;;31.00;;
59302;SDS011;45074;52.764;6.896;2022-12-13T01:40:53;63.53;;;30.33;;
59302;SDS011;45074;52.764;6.896;2022-12-13T01:43:25;63.50;;;29.70;;
59302;SDS011;45074;52.764;6.896;2022-12-13T01:45:54;61.92;;;29.88;;
59302;SDS011;45074;52.764;6.896;2022-12-13T01:48:22;63.72;;;29.75;;
59302;SDS011;45074;52.764;6.896;2022-12-13T01:50:51;67.55;;;30.80;;
59302;SDS011;45074;52.764;6.896;2022-12-13T01:53:20;63.30;;;29.73;;
59302;SDS011;45074;52.764;6.896;2022-12-13T01:55:49;59.58;;;28.85;;
59302;SDS011;45074;52.764;6.896;2022-12-13T01:58:18;60.45;;;28.02;;
59302;SDS011;45074;52.764;6.896;2022-12-13T02:00:45;60.08;;;29.88;;
59302;SDS011;45074;52.764;6.896;2022-12-13T02:03:12;58.33;;;30.33;;
59302;SDS011;45074;52.764;6.896;2022-12-13T02:05:44;61.53;;;28.77;;
59302;SDS011;45074;52.764;6.896;2022-12-13T02:08:17;61.85;;;30.58;;
59302;SDS011;45074;52.764;6.896;2022-12-13T02:10:43;61.53;;;29.17;;
59302;SDS011;45074;52.764;6.896;2022-12-13T02:13:10;67.60;;;31.05;;
59302;SDS011;45074;52.764;6.896;2022-12-13T02:15:48;58.20;;;27.70;;
59302;SDS011;45074;52.764;6.896;2022-12-13T02:18:19;66.97;;;29.58;;
59302;SDS011;45074;52.764;6.896;2022-12-13T02:31:39;55.85;;;27.98;;
59302;SDS011;45074;52.764;6.896;2022-12-13T02:39:34;61.15;;;29.23;;
59302;SDS011;45074;52.764;6.896;2022-12-13T02:46:59;70.00;;;31.48;;
59302;SDS011;45074;52.764;6.896;2022-12-13T02:49:29;66.88;;;29.15;;
59302;SDS011;45074;52.764;6.896;2022-12-13T02:51:58;67.82;;;29.90;;
59302;SDS011;45074;52.764;6.896;2022-12-13T02:54:25;65.15;;;30.08;;
59302;SDS011;45074;52.764;6.896;2022-12-13T02:56:54;67.15;;;29.65;;
59302;SDS011;45074;52.764;6.896;2022-12-13T02:59:22;65.70;;;28.90;;
59302;SDS011;45074;52.764;6.896;2022-12-13T03:04:34;60.90;;;28.75;;
59302;SDS011;45074;52.764;6.896;2022-12-13T03:16:32;62.40;;;28.05;;
59302;SDS011;45074;52.764;6.896;2022-12-13T03:19:03;61.35;;;29.05;;
59302;SDS011;45074;52.764;6.896;2022-12-13T03:21:41;59.42;;;28.27;;
59302;SDS011;45074;52.764;6.896;2022-12-13T03:24:09;61.08;;;28.80;;
59302;SDS011;45074;52.764;6.896;2022-12-13T03:26:35;68.30;;;29.70;;
59302;SDS011;45074;52.764;6.896;2022-12-13T03:29:02;71.50;;;28.77;;
59302;SDS011;45074;52.764;6.896;2022-12-13T03:31:28;62.22;;;29.90;;
59302;SDS011;45074;52.764;6.896;2022-12-13T03:33:54;61.08;;;29.42;;
59302;SDS011;45074;52.764;6.896;2022-12-13T03:36:20;58.40;;;29.60;;
59302;SDS011;45074;52.764;6.896;2022-12-13T03:38:47;63.80;;;28.80;;
59302;SDS011;45074;52.764;6.896;2022-12-13T03:41:16;64.35;;;30.70;;
59302;SDS011;45074;52.764;6.896;2022-12-13T03:43:43;54.83;;;26.83;;
59302;SDS011;45074;52.764;6.896;2022-12-13T03:46:09;63.90;;;30.10;;
59302;SDS011;45074;52.764;6.896;2022-12-13T03:48:35;58.72;;;28.42;;
59302;SDS011;45074;52.764;6.896;2022-12-13T03:51:02;60.17;;;28.73;;
59302;SDS011;45074;52.764;6.896;2022-12-13T03:53:28;58.80;;;28.88;;
59302;SDS011;45074;52.764;6.896;2022-12-13T03:55:54;59.83;;;28.30;;
59302;SDS011;45074;52.764;6.896;2022-12-13T03:58:20;60.63;;;27.92;;
59302;SDS011;45074;52.764;6.896;2022-12-13T04:00:47;59.97;;;28.42;;
59302;SDS011;45074;52.764;6.896;2022-12-13T04:03:13;51.65;;;27.52;;
59302;SDS011;45074;52.764;6.896;2022-12-13T04:05:39;61.35;;;28.90;;
59302;SDS011;45074;52.764;6.896;2022-12-13T04:08:05;58.38;;;28.17;;
59302;SDS011;45074;52.764;6.896;2022-12-13T04:10:31;62.30;;;29.50;;
59302;SDS011;45074;52.764;6.896;2022-12-13T04:12:59;62.03;;;29.67;;
59302;SDS011;45074;52.764;6.896;2022-12-13T04:15:44;63.35;;;28.90;;
59302;SDS011;45074;52.764;6.896;2022-12-13T04:18:16;57.55;;;29.52;;
59302;SDS011;45074;52.764;6.896;2022-12-13T04:20:42;62.58;;;29.33;;
59302;SDS011;45074;52.764;6.896;2022-12-13T04:23:09;61.17;;;28.50;;
59302;SDS011;45074;52.764;6.896;2022-12-13T04:25:35;62.65;;;29.60;;
59302;SDS011;45074;52.764;6.896;2022-12-13T04:28:01;63.35;;;28.27;;
59302;SDS011;45074;52.764;6.896;2022-12-13T04:30:28;65.45;;;29.75;;
59302;SDS011;45074;52.764;6.896;2022-12-13T04:32:54;62.65;;;29.85;;
59302;SDS011;45074;52.764;6.896;2022-12-13T04:35:21;58.88;;;29.55;;
59302;SDS011;45074;52.764;6.896;2022-12-13T04:37:47;64.97;;;28.73;;
59302;SDS011;45074;52.764;6.896;2022-12-13T04:40:13;60.13;;;27.48;;
59302;SDS011;45074;52.764;6.896;2022-12-13T04:42:39;64.57;;;28.83;;
59302;SDS011;45074;52.764;6.896;2022-12-13T04:45:05;64.45;;;29.83;;
59302;SDS011;45074;52.764;6.896;2022-12-13T04:47:31;62.58;;;28.90;;
59302;SDS011;45074;52.764;6.896;2022-12-13T04:49:57;59.35;;;28.17;;
59302;SDS011;45074;52.764;6.896;2022-12-13T04:52:23;63.47;;;29.55;;
59302;SDS011;45074;52.764;6.896;2022-12-13T04:54:50;61.83;;;29.55;;
59302;SDS011;45074;52.764;6.896;2022-12-13T04:57:16;64.40;;;30.38;;
59302;SDS011;45074;52.764;6.896;2022-12-13T04:59:42;70.30;;;32.10;;
59302;SDS011;45074;52.764;6.896;2022-12-13T05:02:11;61.05;;;30.55;;
59302;SDS011;45074;52.764;6.896;2022-12-13T05:04:37;70.03;;;32.00;;
59302;SDS011;45074;52.764;6.896;2022-12-13T05:07:03;72.45;;;30.90;;
59302;SDS011;45074;52.764;6.896;2022-12-13T05:09:29;68.32;;;31.42;;
59302;SDS011;45074;52.764;6.896;2022-12-13T05:11:55;62.88;;;30.63;;
59302;SDS011;45074;52.764;6.896;2022-12-13T05:14:21;67.57;;;31.70;;
59302;SDS011;45074;52.764;6.896;2022-12-13T05:16:47;68.30;;;31.58;;
59302;SDS011;45074;52.764;6.896;2022-12-13T05:19:13;62.00;;;30.77;;
59302;SDS011;45074;52.764;6.896;2022-12-13T05:21:39;66.97;;;32.17;;
59302;SDS011;45074;52.764;6.896;2022-12-13T05:24:05;68.22;;;31.83;;
59302;SDS011;45074;52.764;6.896;2022-12-13T05:26:31;65.00;;;31.73;;
59302;SDS011;45074;52.764;6.896;2022-12-13T05:28:57;66.43;;;31.38;;
59302;SDS011;45074;52.764;6.896;2022-12-13T05:31:24;63.25;;;30.98;;
59302;SDS011;45074;52.764;6.896;2022-12-13T05:33:50;62.85;;;31.33;;
59302;SDS011;45074;52.764;6.896;2022-12-13T05:36:16;62.08;;;30.25;;
59302;SDS011;45074;52.764;6.896;2022-12-13T05:38:42;61.22;;;31.52;;
59302;SDS011;45074;52.764;6.896;2022-12-13T05:41:10;59.38;;;29.33;;
59302;SDS011;45074;52.764;6.896;2022-12-13T05:43:41;60.17;;;29.33;;
59302;SDS011;45074;52.764;6.896;2022-12-13T05:46:07;60.22;;;29.73;;
59302;SDS011;45074;52.764;6.896;2022-12-13T05:48:33;56.58;;;27.88;;
59302;SDS011;45074;52.764;6.896;2022-12-13T05:50:59;57.83;;;30.63;;
59302;SDS011;45074;52.764;6.896;2022-12-13T05:53:25;57.70;;;28.25;;
59302;SDS011;45074;52.764;6.896;2022-12-13T05:55:51;56.47;;;29.38;;
59302;SDS011;45074;52.764;6.896;2022-12-13T05:58:17;55.05;;;28.33;;
59302;SDS011;45074;52.764;6.896;2022-12-13T06:00:43;54.53;;;27.38;;
59302;SDS011;45074;52.764;6.896;2022-12-13T06:03:09;53.58;;;27.65;;
59302;SDS011;45074;52.764;6.896;2022-12-13T06:05:36;50.05;;;27.13;;
59302;SDS011;45074;52.764;6.896;2022-12-13T06:08:02;56.22;;;26.85;;
59302;SDS011;45074;52.764;6.896;2022-12-13T06:10:28;50.25;;;26.80;;
59302;SDS011;45074;52.764;6.896;2022-12-13T06:12:54;51.40;;;25.58;;
59302;SDS011;45074;52.764;6.896;2022-12-13T06:15:20;60.05;;;27.02;;
59302;SDS011;45074;52.764;6.896;2022-12-13T06:17:46;53.40;;;26.55;;
59302;SDS011;45074;52.764;6.896;2022-12-13T06:20:12;52.05;;;26.50;;
59302;SDS011;45074;52.764;6.896;2022-12-13T06:22:38;53.95;;;26.27;;
59302;SDS011;45074;52.764;6.896;2022-12-13T06:25:04;59.60;;;27.20;;
59302;SDS011;45074;52.764;6.896;2022-12-13T06:27:30;51.08;;;25.33;;
59302;SDS011;45074;52.764;6.896;2022-12-13T06:30:09;54.40;;;26.00;;
59302;SDS011;45074;52.764;6.896;2022-12-13T06:32:35;49.92;;;25.65;;
59302;SDS011;45074;52.764;6.896;2022-12-13T06:35:01;53.28;;;26.85;;
59302;SDS011;45074;52.764;6.896;2022-12-13T06:37:27;50.50;;;26.60;;
59302;SDS011;45074;52.764;6.896;2022-12-13T06:39:53;50.65;;;25.38;;
59302;SDS011;45074;52.764;6.896;2022-12-13T06:42:19;51.80;;;26.08;;
59302;SDS011;45074;52.764;6.896;2022-12-13T06:44:45;55.03;;;28.50;;
59302;SDS011;45074;52.764;6.896;2022-12-13T06:47:12;55.05;;;26.83;;
59302;SDS011;45074;52.764;6.896;2022-12-13T06:49:38;52.35;;;27.27;;
59302;SDS011;45074;52.764;6.896;2022-12-13T06:52:08;53.55;;;27.15;;
59302;SDS011;45074;52.764;6.896;2022-12-13T06:54:36;49.38;;;24.75;;
59302;SDS011;45074;52.764;6.896;2022-12-13T06:57:02;56.00;;;27.20;;
59302;SDS011;45074;52.764;6.896;2022-12-13T06:59:28;48.90;;;26.48;;
59302;SDS011;45074;52.764;6.896;2022-12-13T07:01:54;51.35;;;25.80;;
59302;SDS011;45074;52.764;6.896;2022-12-13T07:04:20;50.63;;;26.33;;
59302;SDS011;45074;52.764;6.896;2022-12-13T07:06:46;49.30;;;24.42;;
59302;SDS011;45074;52.764;6.896;2022-12-13T07:09:12;49.97;;;26.40;;
59302;SDS011;45074;52.764;6.896;2022-12-13T07:11:38;51.92;;;24.92;;
59302;SDS011;45074;52.764;6.896;2022-12-13T07:14:04;51.13;;;26.33;;
59302;SDS011;45074;52.764;6.896;2022-12-13T07:16:30;47.97;;;24.42;;
59302;SDS011;45074;52.764;6.896;2022-12-13T07:18:57;52.13;;;25.20;;
59302;SDS011;45074;52.764;6.896;2022-12-13T07:21:24;52.58;;;25.75;;
59302;SDS011;45074;52.764;6.896;2022-12-13T07:23:50;47.88;;;24.83;;
59302;SDS011;45074;52.764;6.896;2022-12-13T07:26:17;50.70;;;25.38;;
59302;SDS011;45074;52.764;6.896;2022-12-13T07:28:43;51.95;;;26.15;;
59302;SDS011;45074;52.764;6.896;2022-12-13T07:31:10;49.55;;;24.83;;
59302;SDS011;45074;52.764;6.896;2022-12-13T07:33:36;51.58;;;25.73;;
59302;SDS011;45074;52.764;6.896;2022-12-13T07:36:12;49.97;;;25.40;;
59302;SDS011;45074;52.764;6.896;2022-12-13T07:38:40;50.45;;;25.95;;
59302;SDS011;45074;52.764;6.896;2022-12-13T07:41:06;55.28;;;27.23;;
59302;SDS011;45074;52.764;6.896;2022-12-13T07:43:33;54.90;;;28.05;;
59302;SDS011;45074;52.764;6.896;2022-12-13T07:46:00;57.70;;;28.08;;
59302;SDS011;45074;52.764;6.896;2022-12-13T07:48:26;58.90;;;26.35;;
59302;SDS011;45074;52.764;6.896;2022-12-13T07:50:53;60.33;;;28.27;;
59302;SDS011;45074;52.764;6.896;2022-12-13T07:53:24;48.85;;;25.20;;
59302;SDS011;45074;52.764;6.896;2022-12-13T07:55:50;55.45;;;27.40;;
59302;SDS011;45074;52.764;6.896;2022-12-13T07:58:16;51.17;;;26.48;;
59302;SDS011;45074;52.764;6.896;2022-12-13T08:00:43;50.95;;;26.65;;
59302;SDS011;45074;52.764;6.896;2022-12-13T08:03:09;55.38;;;27.30;;
59302;SDS011;45074;52.764;6.896;2022-12-13T08:05:36;63.70;;;26.77;;
59302;SDS011;45074;52.764;6.896;2022-12-13T08:08:05;53.08;;;26.05;;
59302;SDS011;45074;52.764;6.896;2022-12-13T08:10:32;61.20;;;28.70;;
59302;SDS011;45074;52.764;6.896;2022-12-13T08:13:00;56.25;;;26.15;;
59302;SDS011;45074;52.764;6.896;2022-12-13T08:15:27;49.20;;;25.38;;
59302;SDS011;45074;52.764;6.896;2022-12-13T08:17:56;52.25;;;26.38;;
59302;SDS011;45074;52.764;6.896;2022-12-13T08:20:25;54.58;;;27.42;;
59302;SDS011;45074;52.764;6.896;2022-12-13T08:22:54;57.60;;;27.67;;
59302;SDS011;45074;52.764;6.896;2022-12-13T08:25:21;52.80;;;25.10;;
59302;SDS011;45074;52.764;6.896;2022-12-13T08:27:47;57.92;;;26.80;;
59302;SDS011;45074;52.764;6.896;2022-12-13T08:30:13;57.00;;;27.40;;
59302;SDS011;45074;52.764;6.896;2022-12-13T08:32:39;57.78;;;28.85;;
59302;SDS011;45074;52.764;6.896;2022-12-13T08:35:05;56.55;;;25.88;;
59302;SDS011;45074;52.764;6.896;2022-12-13T08:37:32;56.95;;;27.33;;
59302;SDS011;45074;52.764;6.896;2022-12-13T08:39:58;55.28;;;27.33;;
59302;SDS011;45074;52.764;6.896;2022-12-13T08:42:24;53.65;;;24.70;;
59302;SDS011;45074;52.764;6.896;2022-12-13T08:44:50;56.63;;;27.42;;
59302;SDS011;45074;52.764;6.896;2022-12-13T08:47:18;57.92;;;27.08;;
59302;SDS011;45074;52.764;6.896;2022-12-13T08:49:44;59.28;;;27.42;;
59302;SDS011;45074;52.764;6.896;2022-12-13T08:52:11;53.45;;;26.95;;
59302;SDS011;45074;52.764;6.896;2022-12-13T08:54:37;59.35;;;28.02;;
59302;SDS011;45074;52.764;6.896;2022-12-13T08:57:03;59.80;;;27.33;;
59302;SDS011;45074;52.764;6.896;2022-12-13T08:59:29;59.13;;;27.08;;
59302;SDS011;45074;52.764;6.896;2022-12-13T09:01:55;59.45;;;28.77;;
59302;SDS011;45074;52.764;6.896;2022-12-13T09:04:21;53.92;;;26.23;;
59302;SDS011;45074;52.764;6.896;2022-12-13T09:06:47;58.08;;;26.10;;
59302;SDS011;45074;52.764;6.896;2022-12-13T09:09:13;56.92;;;28.33;;
59302;SDS011;45074;52.764;6.896;2022-12-13T09:11:39;55.45;;;27.50;;
59302;SDS011;45074;52.764;6.896;2022-12-13T09:14:06;53.85;;;26.63;;
59302;SDS011;45074;52.764;6.896;2022-12-13T09:16:32;59.45;;;28.85;;
59302;SDS011;45074;52.764;6.896;2022-12-13T09:19:00;55.25;;;27.67;;
59302;SDS011;45074;52.764;6.896;2022-12-13T09:21:29;59.08;;;28.75;;
59302;SDS011;45074;52.764;6.896;2022-12-13T09:23:55;62.58;;;30.85;;
59302;SDS011;45074;52.764;6.896;2022-12-13T09:26:22;60.22;;;30.20;;
59302;SDS011;45074;52.764;6.896;2022-12-13T09:28:48;57.03;;;29.83;;
59302;SDS011;45074;52.764;6.896;2022-12-13T09:31:15;59.13;;;29.90;;
59302;SDS011;45074;52.764;6.896;2022-12-13T09:33:42;65.55;;;30.90;;
59302;SDS011;45074;52.764;6.896;2022-12-13T09:36:27;61.67;;;30.02;;
59302;SDS011;45074;52.764;6.896;2022-12-13T09:38:53;58.83;;;29.27;;
59302;SDS011;45074;52.764;6.896;2022-12-13T09:41:30;60.53;;;30.17;;
59302;SDS011;45074;52.764;6.896;2022-12-13T09:44:11;55.33;;;29.87;;
59302;SDS011;45074;52.764;6.896;2022-12-13T09:46:44;60.75;;;30.20;;
59302;SDS011;45074;52.764;6.896;2022-12-13T09:49:16;61.80;;;31.30;;
59302;SDS011;45074;52.764;6.896;2022-12-13T09:51:54;63.67;;;31.55;;
59302;SDS011;45074;52.764;6.896;2022-12-13T09:54:22;56.72;;;29.17;;
59302;SDS011;45074;52.764;6.896;2022-12-13T09:56:48;57.33;;;29.60;;
59302;SDS011;45074;52.764;6.896;2022-12-13T09:59:16;60.60;;;30.88;;
59302;SDS011;45074;52.764;6.896;2022-12-13T10:01:44;63.90;;;30.70;;
59302;SDS011;45074;52.764;6.896;2022-12-13T10:04:11;60.25;;;31.55;;
59302;SDS011;45074;52.764;6.896;2022-12-13T10:06:41;61.90;;;30.10;;
59302;SDS011;45074;52.764;6.896;2022-12-13T10:09:09;58.95;;;31.20;;
59302;SDS011;45074;52.764;6.896;2022-12-13T10:11:36;54.33;;;29.33;;
59302;SDS011;45074;52.764;6.896;2022-12-13T10:14:13;55.72;;;30.40;;
59302;SDS011;45074;52.764;6.896;2022-12-13T10:16:46;61.40;;;31.88;;
59302;SDS011;45074;52.764;6.896;2022-12-13T10:19:34;62.43;;;32.03;;
59302;SDS011;45074;52.764;6.896;2022-12-13T10:22:06;61.00;;;31.13;;
59302;SDS011;45074;52.764;6.896;2022-12-13T10:27:34;57.22;;;30.35;;
59302;SDS011;45074;52.764;6.896;2022-12-13T10:32:41;63.28;;;32.30;;
59302;SDS011;45074;52.764;6.896;2022-12-13T10:37:47;65.53;;;33.75;;
59302;SDS011;45074;52.764;6.896;2022-12-13T10:40:24;64.13;;;32.50;;
59302;SDS011;45074;52.764;6.896;2022-12-13T10:43:12;63.05;;;33.90;;
59302;SDS011;45074;52.764;6.896;2022-12-13T10:45:38;64.40;;;32.83;;
59302;SDS011;45074;52.764;6.896;2022-12-13T10:48:10;67.13;;;35.03;;
59302;SDS011;45074;52.764;6.896;2022-12-13T10:50:43;61.63;;;32.42;;
59302;SDS011;45074;52.764;6.896;2022-12-13T10:53:21;59.22;;;33.20;;
59302;SDS011;45074;52.764;6.896;2022-12-13T10:55:55;57.75;;;32.08;;
59302;SDS011;45074;52.764;6.896;2022-12-13T10:58:22;61.78;;;32.65;;
59302;SDS011;45074;52.764;6.896;2022-12-13T11:01:24;60.40;;;31.65;;
59302;SDS011;45074;52.764;6.896;2022-12-13T11:03:56;54.90;;;31.05;;
59302;SDS011;45074;52.764;6.896;2022-12-13T11:06:25;63.63;;;33.25;;
59302;SDS011;45074;52.764;6.896;2022-12-13T11:08:52;59.40;;;35.17;;
59302;SDS011;45074;52.764;6.896;2022-12-13T11:11:26;61.92;;;33.05;;
59302;SDS011;45074;52.764;6.896;2022-12-13T11:13:54;57.38;;;30.35;;
59302;SDS011;45074;52.764;6.896;2022-12-13T11:16:37;57.30;;;31.20;;
59302;SDS011;45074;52.764;6.896;2022-12-13T11:19:06;61.55;;;31.33;;
59302;SDS011;45074;52.764;6.896;2022-12-13T11:21:44;55.13;;;31.83;;
59302;SDS011;45074;52.764;6.896;2022-12-13T11:24:17;62.58;;;34.03;;
59302;SDS011;45074;52.764;6.896;2022-12-13T11:26:47;56.70;;;32.08;;
59302;SDS011;45074;52.764;6.896;2022-12-13T11:32:28;57.28;;;31.25;;
59302;SDS011;45074;52.764;6.896;2022-12-13T11:35:08;57.25;;;31.88;;
59302;SDS011;45074;52.764;6.896;2022-12-13T11:37:53;62.35;;;34.13;;
59302;SDS011;45074;52.764;6.896;2022-12-13T11:40:48;62.03;;;34.83;;
59302;SDS011;45074;52.764;6.896;2022-12-13T11:43:22;58.78;;;31.95;;
59302;SDS011;45074;52.764;6.896;2022-12-13T11:46:03;55.08;;;31.30;;
59302;SDS011;45074;52.764;6.896;2022-12-13T11:48:46;56.22;;;29.95;;
59302;SDS011;45074;52.764;6.896;2022-12-13T11:51:37;54.38;;;31.10;;
59302;SDS011;45074;52.764;6.896;2022-12-13T11:54:12;54.67;;;30.52;;
59302;SDS011;45074;52.764;6.896;2022-12-13T11:56:46;57.92;;;31.27;;
59302;SDS011;45074;52.764;6.896;2022-12-13T11:59:26;58.35;;;31.63;;
59302;SDS011;45074;52.764;6.896;2022-12-13T12:02:11;55.60;;;31.45;;
59302;SDS011;45074;52.764;6.896;2022-12-13T12:04:55;54.58;;;30.80;;
59302;SDS011;45074;52.764;6.896;2022-12-13T12:07:43;55.25;;;31.25;;
59302;SDS011;45074;52.764;6.896;2022-12-13T12:12:47;50.78;;;29.23;;
59302;SDS011;45074;52.764;6.896;2022-12-13T12:15:34;50.17;;;29.77;;
59302;SDS011;45074;52.764;6.896;2022-12-13T12:18:12;50.40;;;30.27;;
59302;SDS011;45074;52.764;6.896;2022-12-13T12:21:14;50.85;;;28.65;;
59302;SDS011;45074;52.764;6.896;2022-12-13T12:23:36;50.42;;;30.48;;
59302;SDS011;45074;52.764;6.896;2022-12-13T12:26:42;46.75;;;30.13;;
59302;SDS011;45074;52.764;6.896;2022-12-13T12:32:05;49.15;;;31.30;;
59302;SDS011;45074;52.764;6.896;2022-12-13T12:34:48;48.08;;;29.17;;
59302;SDS011;45074;52.764;6.896;2022-12-13T12:40:25;50.38;;;29.45;;
59302;SDS011;45074;52.764;6.896;2022-12-13T12:43:09;49.80;;;28.13;;
59302;SDS011;45074;52.764;6.896;2022-12-13T12:45:57;44.97;;;28.10;;
59302;SDS011;45074;52.764;6.896;2022-12-13T13:08:14;49.78;;;29.27;;
59302;SDS011;45074;52.764;6.896;2022-12-13T13:10:46;50.15;;;28.88;;
59302;SDS011;45074;52.764;6.896;2022-12-13T13:13:32;50.97;;;30.00;;
59302;SDS011;45074;52.764;6.896;2022-12-13T13:16:01;48.17;;;29.20;;
59302;SDS011;45074;52.764;6.896;2022-12-13T13:18:46;52.65;;;28.98;;
59302;SDS011;45074;52.764;6.896;2022-12-13T13:24:12;46.85;;;27.85;;
59302;SDS011;45074;52.764;6.896;2022-12-13T13:26:49;48.05;;;28.30;;
59302;SDS011;45074;52.764;6.896;2022-12-13T13:29:20;50.78;;;28.63;;
59302;SDS011;45074;52.764;6.896;2022-12-13T13:34:22;51.53;;;29.20;;
59302;SDS011;45074;52.764;6.896;2022-12-13T13:36:50;48.15;;;28.27;;
59302;SDS011;45074;52.764;6.896;2022-12-13T13:39:17;46.90;;;28.52;;
59302;SDS011;45074;52.764;6.896;2022-12-13T13:47:14;46.17;;;27.17;;
59302;SDS011;45074;52.764;6.896;2022-12-13T13:53:17;48.65;;;27.55;;
59302;SDS011;45074;52.764;6.896;2022-12-13T14:14:31;45.75;;;26.60;;
59302;SDS011;45074;52.764;6.896;2022-12-13T14:20:27;46.80;;;27.20;;
59302;SDS011;45074;52.764;6.896;2022-12-13T14:31:16;45.28;;;26.65;;
59302;SDS011;45074;52.764;6.896;2022-12-13T14:33:47;47.67;;;27.48;;
59302;SDS011;45074;52.764;6.896;2022-12-13T14:36:15;47.30;;;27.63;;
59302;SDS011;45074;52.764;6.896;2022-12-13T14:38:42;46.22;;;28.10;;
59302;SDS011;45074;52.764;6.896;2022-12-13T14:41:17;47.67;;;27.35;;
59302;SDS011;45074;52.764;6.896;2022-12-13T14:43:43;48.15;;;27.10;;
59302;SDS011;45074;52.764;6.896;2022-12-13T14:46:11;47.38;;;28.20;;
59302;SDS011;45074;52.764;6.896;2022-12-13T14:48:43;44.40;;;26.73;;
59302;SDS011;45074;52.764;6.896;2022-12-13T14:51:19;47.13;;;28.00;;
59302;SDS011;45074;52.764;6.896;2022-12-13T14:53:59;44.55;;;26.33;;
59302;SDS011;45074;52.764;6.896;2022-12-13T14:56:27;45.60;;;26.73;;
59302;SDS011;45074;52.764;6.896;2022-12-13T14:58:55;45.92;;;26.65;;
59302;SDS011;45074;52.764;6.896;2022-12-13T15:03:51;53.25;;;30.30;;
59302;SDS011;45074;52.764;6.896;2022-12-13T15:06:17;52.10;;;29.63;;
59302;SDS011;45074;52.764;6.896;2022-12-13T15:08:45;48.40;;;28.98;;
59302;SDS011;45074;52.764;6.896;2022-12-13T15:11:11;49.15;;;28.02;;
59302;SDS011;45074;52.764;6.896;2022-12-13T15:13:47;46.78;;;27.92;;
59302;SDS011;45074;52.764;6.896;2022-12-13T15:18:42;49.35;;;27.38;;
59302;SDS011;45074;52.764;6.896;2022-12-13T15:21:19;47.83;;;28.80;;
59302;SDS011;45074;52.764;6.896;2022-12-13T15:23:47;46.55;;;27.77;;
59302;SDS011;45074;52.764;6.896;2022-12-13T15:26:14;50.83;;;28.60;;
59302;SDS011;45074;52.764;6.896;2022-12-13T15:28:43;44.10;;;27.75;;
59302;SDS011;45074;52.764;6.896;2022-12-13T15:31:11;51.50;;;28.35;;
59302;SDS011;45074;52.764;6.896;2022-12-13T15:33:37;48.65;;;28.25;;
59302;SDS011;45074;52.764;6.896;2022-12-13T15:36:05;48.92;;;28.45;;
59302;SDS011;45074;52.764;6.896;2022-12-13T15:38:39;48.90;;;28.98;;
59302;SDS011;45074;52.764;6.896;2022-12-13T15:41:29;54.42;;;30.33;;
59302;SDS011;45074;52.764;6.896;2022-12-13T15:44:00;55.95;;;31.88;;
59302;SDS011;45074;52.764;6.896;2022-12-13T15:46:31;59.78;;;32.85;;
59302;SDS011;45074;52.764;6.896;2022-12-13T15:49:01;65.60;;;34.28;;
59302;SDS011;45074;52.764;6.896;2022-12-13T15:51:27;56.92;;;31.92;;
59302;SDS011;45074;52.764;6.896;2022-12-13T15:53:59;57.40;;;31.48;;
59302;SDS011;45074;52.764;6.896;2022-12-13T15:56:57;53.08;;;30.08;;
59302;SDS011;45074;52.764;6.896;2022-12-13T15:59:38;53.88;;;30.42;;
59302;SDS011;45074;52.764;6.896;2022-12-13T16:02:18;51.70;;;30.27;;
59302;SDS011;45074;52.764;6.896;2022-12-13T16:04:47;51.05;;;30.98;;
59302;SDS011;45074;52.764;6.896;2022-12-13T16:07:23;55.70;;;31.00;;
59302;SDS011;45074;52.764;6.896;2022-12-13T16:09:53;54.80;;;32.03;;
59302;SDS011;45074;52.764;6.896;2022-12-13T16:12:21;60.20;;;32.92;;
59302;SDS011;45074;52.764;6.896;2022-12-13T16:14:50;55.50;;;32.95;;
59302;SDS011;45074;52.764;6.896;2022-12-13T16:19:42;55.08;;;33.25;;
59302;SDS011;45074;52.764;6.896;2022-12-13T16:22:08;53.50;;;31.38;;
59302;SDS011;45074;52.764;6.896;2022-12-13T16:24:34;53.10;;;30.88;;
59302;SDS011;45074;52.764;6.896;2022-12-13T16:27:00;56.83;;;31.98;;
59302;SDS011;45074;52.764;6.896;2022-12-13T16:29:26;52.17;;;30.58;;
59302;SDS011;45074;52.764;6.896;2022-12-13T16:31:52;52.65;;;30.52;;
59302;SDS011;45074;52.764;6.896;2022-12-13T16:34:21;50.03;;;30.15;;
59302;SDS011;45074;52.764;6.896;2022-12-13T16:36:47;52.45;;;31.90;;
59302;SDS011;45074;52.764;6.896;2022-12-13T16:39:13;50.85;;;30.95;;